Time;durP1;ratioP1;P1;durP2;ratioP2;P2;SDS_P1;SDS_P2;PMS_P1;PMS_P2;Temp;Humidity;BMP_temperature;BMP_pressure;BME280_temperature;BME280_humidity;BME280_pressure;Samples;Min_cycle;Max_cycle;Signal;HPM_P1;HPM_P2
2023/08/17 00:02:48;;;;;;;28.75;25.75;;;16.80;99.90;;;;;;25327285;23;20065;-52
2023/08/17 00:12:50;;;;;;;33.15;27.83;;;16.60;99.90;;;;;;25327824;23;20013;-58
2023/08/17 00:22:52;;;;;;;33.30;29.42;;;16.50;99.90;;;;;;25326269;23;20005;-57
2023/08/17 00:32:54;;;;;;;36.45;31.02;;;16.40;99.90;;;;;;25326031;23;20002;-58
2023/08/17 00:42:56;;;;;;;37.60;31.90;;;16.30;99.90;;;;;;25326399;23;20013;-52
2023/08/17 00:52:58;;;;;;;36.95;30.90;;;16.10;99.90;;;;;;25325557;23;20010;-48
2023/08/17 01:03:00;;;;;;;36.22;30.75;;;16.00;99.90;;;;;;25325692;23;20299;-57
2023/08/17 01:13:24;;;;;;;36.00;30.38;;;15.90;99.90;;;;;;25324937;23;20386;-48
2023/08/17 01:23:30;;;;;;;39.25;33.17;;;15.70;99.90;;;;;;25366154;23;20009;-52
2023/08/17 01:33:54;;;;;;;33.55;29.00;;;15.60;99.90;;;;;;25322791;23;20032;-57
2023/08/17 01:43:57;;;;;;;32.45;28.95;;;15.80;99.90;;;;;;25305883;23;20009;-58
2023/08/17 01:53:59;;;;;;;35.20;28.98;;;16.00;99.90;;;;;;25298367;23;20017;-57
2023/08/17 02:04:02;;;;;;;32.80;27.73;;;16.30;99.90;;;;;;25323943;23;20504;-58
2023/08/17 02:14:04;;;;;;;35.78;29.70;;;16.40;99.90;;;;;;25323577;23;20010;-58
2023/08/17 02:24:06;;;;;;;30.92;27.20;;;16.30;99.90;;;;;;25323237;23;20331;-58
2023/08/17 02:34:09;;;;;;;31.50;28.05;;;16.50;99.90;;;;;;25297726;23;20108;-58
2023/08/17 02:44:11;;;;;;;32.75;28.88;;;16.50;99.90;;;;;;25328424;23;20458;-56
2023/08/17 02:54:13;;;;;;;36.35;31.42;;;16.20;99.90;;;;;;25304340;23;20282;-57
2023/08/17 03:04:15;;;;;;;30.42;27.23;;;15.90;99.90;;;;;;25329457;23;20002;-58
2023/08/17 03:14:17;;;;;;;32.92;29.13;;;15.80;99.90;;;;;;25329647;23;20006;-58
2023/08/17 03:24:19;;;;;;;33.50;27.52;;;15.90;99.90;;;;;;25328957;23;20009;-58
2023/08/17 03:34:21;;;;;;;31.35;26.80;;;15.80;99.90;;;;;;25328282;23;20006;-58
2023/08/17 03:44:23;;;;;;;33.25;29.05;;;15.80;99.90;;;;;;25326997;23;20064;-58
2023/08/17 03:54:25;;;;;;;32.70;29.05;;;15.80;99.90;;;;;;25326551;23;20077;-58
2023/08/17 04:04:27;;;;;;;37.50;30.52;;;15.60;99.90;;;;;;25300601;23;20060;-58
2023/08/17 04:14:31;;;;;;;41.63;33.67;;;15.40;99.90;;;;;;25326085;23;20134;-58
2023/08/17 04:24:33;;;;;;;38.08;31.17;;;15.40;99.90;;;;;;25325530;23;20017;-57
2023/08/17 04:34:36;;;;;;;30.48;23.08;;;15.20;99.90;;;;;;25300880;23;20076;-52
2023/08/17 04:44:37;;;;;;;26.90;22.80;;;15.10;99.90;;;;;;25299986;23;20010;-50
2023/08/17 04:54:40;;;;;;;30.05;25.20;;;15.10;99.90;;;;;;25298948;23;20430;-53
2023/08/17 05:04:42;;;;;;;26.17;23.38;;;15.20;99.90;;;;;;25299001;23;20035;-58
2023/08/17 05:14:46;;;;;;;41.33;31.65;;;15.20;99.90;;;;;;25325279;23;20357;-57
2023/08/17 05:24:48;;;;;;;36.10;29.10;;;15.50;99.90;;;;;;25297069;23;20493;-56
2023/08/17 05:34:50;;;;;;;34.08;30.45;;;15.60;99.90;;;;;;25296481;23;20005;-57
2023/08/17 05:44:52;;;;;;;25.55;22.77;;;15.80;99.90;;;;;;25321590;23;20018;-58
2023/08/17 05:54:54;;;;;;;22.17;19.77;;;16.00;99.90;;;;;;25322663;23;20002;-56
2023/08/17 06:04:56;;;;;;;19.08;17.08;;;16.20;99.90;;;;;;25321562;23;20079;-52
2023/08/17 06:14:58;;;;;;;17.65;15.95;;;16.60;99.90;;;;;;25324246;23;20018;-58
2023/08/17 06:25:00;;;;;;;22.10;19.80;;;17.10;99.90;;;;;;25329225;23;20014;-59
2023/08/17 06:35:02;;;;;;;12.50;11.27;;;17.70;99.90;;;;;;25329248;23;20006;-60
2023/08/17 06:45:05;;;;;;;10.80;8.93;;;20.00;99.90;;;;;;25328171;23;20310;-61
2023/08/17 06:55:08;;;;;;;8.00;7.30;;;23.80;99.90;;;;;;25358085;23;20025;-61
2023/08/17 07:05:10;;;;;;;8.75;7.53;;;24.80;99.90;;;;;;25489372;23;20072;-61
2023/08/17 07:15:12;;;;;;;8.20;6.68;;;24.80;99.90;;;;;;25451455;23;20392;-53
2023/08/17 07:25:15;;;;;;;7.57;6.85;;;25.80;99.90;;;;;;25448609;23;20013;-61
2023/08/17 07:35:17;;;;;;;9.40;6.93;;;26.70;99.90;;;;;;25449466;23;20068;-57
2023/08/17 07:45:19;;;;;;;8.90;7.68;;;27.80;99.90;;;;;;25449659;23;20032;-60
2023/08/17 07:55:20;;;;;;;8.23;7.63;;;28.00;99.60;;;;;;25449820;23;20381;-60
2023/08/17 08:05:22;;;;;;;7.60;6.75;;;28.30;99.00;;;;;;25490369;23;20056;-60
2023/08/17 08:15:24;;;;;;;7.97;7.00;;;28.30;98.80;;;;;;25443597;23;20005;-60
2023/08/17 08:25:26;;;;;;;7.30;5.95;;;28.00;98.50;;;;;;25448517;23;20010;-60
2023/08/17 08:35:29;;;;;;;7.07;5.68;;;28.10;97.80;;;;;;25448220;23;20001;-59
2023/08/17 08:45:31;;;;;;;6.75;6.25;;;28.20;99.60;;;;;;25447222;23;20001;-60
2023/08/17 08:55:37;;;;;;;7.78;5.90;;;27.60;97.60;;;;;;25447705;23;20014;-59
2023/08/17 09:05:40;;;;;;;7.88;6.30;;;26.50;99.60;;;;;;25447538;23;20064;-59
2023/08/17 09:15:42;;;;;;;6.82;5.93;;;26.00;99.90;;;;;;25447070;23;20005;-58
2023/08/17 09:25:46;;;;;;;6.45;5.82;;;26.20;99.90;;;;;;25446699;23;20005;-59
2023/08/17 09:35:50;;;;;;;6.68;6.00;;;28.10;99.00;;;;;;25446269;23;20091;-60
2023/08/17 09:45:54;;;;;;;6.70;6.20;;;27.70;97.50;;;;;;25446327;23;20492;-59
2023/08/17 09:55:59;;;;;;;7.70;7.00;;;27.00;97.90;;;;;;25454009;23;20401;-59
2023/08/17 10:06:12;;;;;;;8.32;7.30;;;26.10;99.90;;;;;;25454335;23;20013;-58
2023/08/17 10:16:29;;;;;;;7.95;7.25;;;26.20;99.90;;;;;;25494351;23;20028;-58
2023/08/17 10:26:33;;;;;;;8.50;7.78;;;27.60;98.80;;;;;;25493919;23;20364;-57
2023/08/17 10:36:35;;;;;;;7.63;6.93;;;28.50;99.90;;;;;;25453141;23;20001;-58
2023/08/17 10:46:42;;;;;;;8.85;7.05;;;29.10;98.70;;;;;;25452480;23;20012;-57
2023/08/17 10:56:44;;;;;;;9.20;8.35;;;;;;;;;;25482076;23;20068;-62
2023/08/17 11:07:00;;;;;;;7.78;7.18;;;29.80;97.30;;;;;;25452157;23;20080;-62
2023/08/17 11:17:03;;;;;;;9.00;8.20;;;28.90;98.60;;;;;;25489868;23;20032;-59
2023/08/17 11:27:05;;;;;;;8.50;7.70;;;29.00;97.60;;;;;;25453757;23;20605;-58
2023/08/17 11:37:07;;;;;;;7.75;6.97;;;28.50;98.10;;;;;;25450127;23;20111;-58
2023/08/17 11:47:11;;;;;;;8.73;7.55;;;28.80;99.10;;;;;;25450263;23;20013;-58
2023/08/17 11:57:13;;;;;;;9.43;8.52;;;28.60;96.60;;;;;;25449458;23;20064;-59
2023/08/17 12:07:19;;;;;;;9.25;8.32;;;28.40;96.90;;;;;;25449215;23;20029;-59
2023/08/17 12:17:21;;;;;;;8.95;8.13;;;27.80;99.80;;;;;;25450504;23;20007;-60
2023/08/17 12:27:24;;;;;;;8.73;7.82;;;28.40;99.90;;;;;;25448897;23;20068;-59
2023/08/17 12:37:26;;;;;;;9.82;8.90;;;29.10;98.10;;;;;;25448337;23;20005;-51
2023/08/17 12:47:31;;;;;;;9.20;8.32;;;29.30;98.10;;;;;;25447764;23;20005;-61
2023/08/17 12:57:33;;;;;;;8.65;7.90;;;28.60;96.40;;;;;;25420368;23;20017;-61
2023/08/17 13:07:35;;;;;;;10.68;9.63;;;28.10;97.20;;;;;;25447066;23;20010;-61
2023/08/17 13:17:36;;;;;;;9.85;8.82;;;28.60;98.40;;;;;;25447412;23;20507;-62
2023/08/17 13:27:38;;;;;;;9.98;8.98;;;28.50;98.30;;;;;;25448287;23;20041;-61
2023/08/17 13:37:40;;;;;;;9.73;8.77;;;28.90;96.70;;;;;;25446201;23;20012;-62
2023/08/17 13:47:42;;;;;;;12.65;11.35;;;28.90;97.20;;;;;;25445015;23;20392;-62
2023/08/17 13:57:44;;;;;;;13.45;12.13;;;29.10;97.80;;;;;;25447157;23;20018;-62
2023/08/17 14:07:50;;;;;;;12.60;11.50;;;28.60;97.00;;;;;;25446034;23;20041;-62
2023/08/17 14:17:52;;;;;;;13.10;11.82;;;;;;;;;;25419145;23;20019;-61
2023/08/17 14:27:55;;;;;;;13.35;12.10;;;27.20;98.80;;;;;;25447181;23;20002;-47
2023/08/17 14:37:57;;;;;;;16.13;14.52;;;26.60;99.90;;;;;;25423159;23;20088;-59
2023/08/17 14:47:59;;;;;;;17.27;15.45;;;25.70;99.90;;;;;;25452525;23;20072;-58
2023/08/17 14:58:02;;;;;;;14.25;12.80;;;24.50;99.90;;;;;;25452712;23;20452;-58
2023/08/17 15:08:04;;;;;;;16.52;14.82;;;24.30;99.90;;;;;;25451914;23;20060;-58
2023/08/17 15:18:06;;;;;;;15.10;13.70;;;23.80;99.90;;;;;;25452326;23;20010;-58
2023/08/17 15:28:08;;;;;;;12.52;11.32;;;23.60;99.90;;;;;;25451813;23;20002;-58
2023/08/17 15:38:10;;;;;;;10.75;9.73;;;23.50;99.90;;;;;;25450812;23;20080;-58
2023/08/17 15:48:12;;;;;;;11.38;10.25;;;23.60;99.90;;;;;;25449580;23;20094;-58
2023/08/17 15:58:14;;;;;;;10.57;9.48;;;23.80;99.90;;;;;;25451002;23;20491;-47
2023/08/17 16:08:16;;;;;;;9.20;8.40;;;23.80;99.90;;;;;;25423735;23;20006;-59
2023/08/17 16:18:18;;;;;;;9.45;8.55;;;23.60;99.90;;;;;;25449151;23;20005;-59
2023/08/17 16:28:20;;;;;;;12.18;10.60;;;23.10;99.90;;;;;;25449122;23;20523;-56
2023/08/17 16:38:24;;;;;;;13.50;12.20;;;22.60;99.90;;;;;;25449001;23;20005;-49
2023/08/17 16:48:26;;;;;;;15.07;13.57;;;21.90;99.90;;;;;;25447017;23;20006;-58
2023/08/17 16:58:31;;;;;;;18.63;16.67;;;21.40;99.90;;;;;;25447857;23;20017;-58
2023/08/17 17:08:35;;;;;;;18.70;15.98;;;20.80;99.90;;;;;;25449341;23;20009;-47
2023/08/17 17:18:37;;;;;;;16.70;15.10;;;20.30;99.90;;;;;;25422181;23;20434;-58
2023/08/17 17:28:39;;;;;;;16.83;15.07;;;19.80;99.90;;;;;;25447571;23;20010;-58
2023/08/17 17:38:40;;;;;;;23.17;15.75;;;19.20;99.90;;;;;;25447182;23;20013;-58
2023/08/17 17:48:42;;;;;;;16.20;14.52;;;18.80;99.90;;;;;;25447291;23;20438;-50
2023/08/17 17:58:44;;;;;;;17.58;13.88;;;18.30;99.90;;;;;;25446800;23;20068;-52
2023/08/17 18:08:46;;;;;;;26.00;23.20;;;17.90;99.90;;;;;;25448092;23;20010;-52
2023/08/17 18:18:47;;;;;;;37.17;31.27;;;17.50;99.90;;;;;;25453377;23;20008;-58
2023/08/17 18:28:49;;;;;;;38.13;30.23;;;17.30;99.90;;;;;;25454081;23;20110;-57
2023/08/17 18:38:51;;;;;;;26.27;22.55;;;17.10;99.90;;;;;;25453606;23;20060;-58
2023/08/17 18:48:53;;;;;;;27.23;24.33;;;17.20;99.90;;;;;;25453188;23;20111;-57
2023/08/17 18:58:56;;;;;;;27.13;21.85;;;17.40;99.90;;;;;;25451911;23;20073;-58
2023/08/17 19:08:59;;;;;;;26.30;23.50;;;17.30;99.90;;;;;;25451150;23;20009;-58
2023/08/17 19:19:03;;;;;;;27.83;24.83;;;17.10;99.90;;;;;;25449573;23;20068;-52
2023/08/17 19:29:05;;;;;;;31.45;27.45;;;17.10;99.90;;;;;;25451036;23;20012;-58
2023/08/17 19:39:07;;;;;;;27.50;24.38;;;17.20;99.90;;;;;;25452204;23;20006;-58
2023/08/17 19:49:09;;;;;;;29.58;24.35;;;17.10;99.90;;;;;;25421819;23;20017;-58
2023/08/17 19:59:11;;;;;;;34.65;29.90;;;17.10;99.90;;;;;;25445884;23;20021;-58
2023/08/17 20:09:16;;;;;;;39.70;33.25;;;17.10;99.90;;;;;;25449603;23;20021;-57
2023/08/17 20:19:19;;;;;;;39.00;34.03;;;16.80;99.90;;;;;;25489881;23;20441;-58
2023/08/17 20:29:23;;;;;;;35.97;30.98;;;16.70;99.90;;;;;;25446598;23;20156;-57
2023/08/17 20:39:25;;;;;;;26.05;23.35;;;16.70;99.90;;;;;;25448198;23;20005;-58
2023/08/17 20:49:30;;;;;;;13.15;11.43;;;17.30;99.90;;;;;;25447988;23;20012;-58
2023/08/17 20:59:32;;;;;;;10.77;8.93;;;17.60;99.90;;;;;;25447855;23;20029;-57
2023/08/17 21:09:35;;;;;;;8.77;7.88;;;17.30;99.90;;;;;;25449058;23;20009;-57
2023/08/17 21:19:36;;;;;;;12.32;7.60;;;17.00;99.90;;;;;;25447589;23;20006;-58
2023/08/17 21:29:38;;;;;;;8.95;7.90;;;16.60;99.90;;;;;;25447043;23;20116;-57
2023/08/17 21:39:42;;;;;;;8.07;6.40;;;16.50;99.90;;;;;;25446850;23;20010;-57
2023/08/17 21:49:46;;;;;;;6.93;5.10;;;16.40;99.90;;;;;;25451926;23;20032;-55
2023/08/17 21:59:48;;;;;;;5.22;4.65;;;16.10;99.90;;;;;;25455543;23;20021;-57
2023/08/17 22:09:50;;;;;;;6.68;5.22;;;16.00;99.90;;;;;;25456034;23;20005;-48
2023/08/17 22:19:51;;;;;;;3.13;2.75;;;16.20;99.90;;;;;;25455509;23;20599;-48
2023/08/17 22:29:53;;;;;;;7.30;2.35;;;16.30;99.90;;;;;;25453945;23;20006;-57
2023/08/17 22:39:55;;;;;;;2.95;2.38;;;16.30;99.90;;;;;;25453906;23;20005;-48
2023/08/17 22:49:56;;;;;;;1.65;1.50;;;15.90;99.90;;;;;;25453347;23;20342;-56
2023/08/17 22:59:58;;;;;;;3.03;1.27;;;15.80;99.90;;;;;;25453339;23;20443;-56
2023/08/17 23:10:00;;;;;;;3.33;1.50;;;16.20;99.90;;;;;;25453536;23;20009;-57
2023/08/17 23:20:02;;;;;;;2.80;1.63;;;16.10;99.90;;;;;;25452511;23;20014;-48
2023/08/17 23:30:05;;;;;;;2.40;1.55;;;16.10;99.90;;;;;;25451946;23;20072;-57
2023/08/17 23:40:07;;;;;;;2.45;1.60;;;16.10;99.90;;;;;;25451568;23;20080;-54
2023/08/17 23:50:09;;;;;;;1.67;1.30;;;16.20;99.90;;;;;;25451262;23;20009;-57
